createdAt,value
2019-03-21T00:00:03.361Z,15.10
2019-03-21T00:02:31.956Z,15.06
2019-03-21T00:04:58.890Z,15.05
2019-03-21T00:07:25.764Z,15.07
2019-03-21T00:09:53.017Z,15.07
2019-03-21T00:12:20.277Z,15.03
2019-03-21T00:14:47.229Z,14.99
2019-03-21T00:17:14.124Z,14.98
2019-03-21T00:19:41.425Z,14.96
2019-03-21T00:22:08.647Z,14.95
2019-03-21T00:24:35.542Z,14.91
2019-03-21T00:27:02.513Z,14.95
2019-03-21T00:29:29.796Z,14.99
2019-03-21T00:31:57.253Z,14.98
2019-03-21T00:34:24.505Z,14.99
2019-03-21T00:36:51.379Z,14.99
2019-03-21T00:39:18.719Z,14.95
2019-03-21T00:41:45.970Z,14.87
2019-03-21T00:44:18.178Z,14.93
2019-03-21T00:46:41.541Z,14.95
2019-03-21T00:49:08.843Z,14.92
2019-03-21T00:51:36.094Z,14.91
2019-03-21T00:54:02.980Z,14.95
2019-03-21T00:56:30.190Z,15.03
2019-03-21T00:58:57.100Z,15.18
2019-03-21T01:01:24.063Z,15.22
2019-03-21T01:03:51.339Z,15.28
2019-03-21T01:06:18.607Z,15.33
2019-03-21T01:08:45.495Z,15.40
2019-03-21T01:11:12.461Z,15.44
2019-03-21T01:13:39.445Z,15.45
2019-03-21T01:16:06.692Z,15.55
2019-03-21T01:18:33.954Z,15.55
2019-03-21T01:21:01.226Z,15.56
2019-03-21T01:23:28.152Z,15.55
2019-03-21T01:25:55.392Z,15.51
2019-03-21T01:28:22.275Z,15.48
2019-03-21T01:30:49.477Z,15.54
2019-03-21T01:33:16.371Z,15.52
2019-03-21T01:35:43.517Z,15.52
2019-03-21T01:38:10.449Z,15.43
2019-03-21T01:40:37.686Z,15.33
2019-03-21T01:43:04.622Z,15.34
2019-03-21T01:45:31.514Z,15.29
2019-03-21T01:47:58.464Z,15.24
2019-03-21T01:50:25.795Z,15.25
2019-03-21T01:52:52.741Z,15.29
2019-03-21T01:55:19.707Z,15.27
2019-03-21T01:57:46.578Z,15.25
2019-03-21T02:00:13.749Z,15.22
2019-03-21T02:02:41.015Z,15.15
2019-03-21T02:05:07.980Z,15.09
2019-03-21T02:07:35.197Z,15.08
2019-03-21T02:10:02.069Z,15.09
2019-03-21T02:12:29.302Z,15.12
2019-03-21T02:14:56.547Z,15.10
2019-03-21T02:17:23.459Z,15.05
2019-03-21T02:19:50.377Z,14.93
2019-03-21T02:22:17.590Z,14.91
2019-03-21T02:24:44.455Z,14.95
2019-03-21T02:27:11.448Z,15.08
2019-03-21T02:29:38.641Z,15.09
2019-03-21T02:32:05.610Z,15.05
2019-03-21T02:34:32.571Z,15.01
2019-03-21T02:36:59.506Z,14.98
2019-03-21T02:39:26.719Z,14.95
2019-03-21T02:41:53.698Z,14.94
2019-03-21T02:44:20.691Z,14.96
2019-03-21T02:46:47.651Z,15.04
2019-03-21T02:49:14.601Z,15.13
2019-03-21T02:51:41.520Z,15.12
2019-03-21T02:54:08.440Z,15.06
2019-03-21T02:56:35.762Z,15.02
2019-03-21T02:59:02.726Z,15.03
2019-03-21T03:01:29.741Z,15.13
2019-03-21T03:03:56.894Z,15.18
2019-03-21T03:06:23.785Z,15.21
2019-03-21T03:08:51.136Z,15.17
2019-03-21T03:11:18.473Z,15.15
2019-03-21T03:13:45.433Z,15.10
2019-03-21T03:16:12.670Z,15.09
2019-03-21T03:18:44.229Z,15.08
2019-03-21T03:21:12.249Z,15.11
2019-03-21T03:23:39.541Z,15.07
2019-03-21T03:26:06.414Z,15.07
2019-03-21T03:28:33.302Z,15.08
2019-03-21T03:31:00.463Z,15.05
2019-03-21T03:33:27.414Z,15.05
2019-03-21T03:35:54.381Z,15.06
2019-03-21T03:38:21.618Z,15.06
2019-03-21T03:40:48.566Z,15.07
2019-03-21T03:43:15.453Z,15.07
2019-03-21T03:45:42.774Z,15.03
2019-03-21T03:48:10.124Z,15.02
2019-03-21T03:50:37.074Z,15.02
2019-03-21T03:53:04.429Z,15.01
2019-03-21T03:55:32.447Z,15.01
2019-03-21T03:57:59.394Z,14.98
2019-03-21T04:00:26.357Z,14.94
2019-03-21T04:02:53.737Z,14.89
2019-03-21T04:05:20.691Z,14.84
2019-03-21T04:07:47.930Z,14.82
2019-03-21T04:10:14.829Z,14.77
2019-03-21T04:12:41.801Z,14.76
2019-03-21T04:15:09.076Z,14.76
2019-03-21T04:17:36.225Z,14.87
2019-03-21T04:20:03.126Z,14.87
2019-03-21T04:22:30.463Z,14.89
2019-03-21T04:24:57.698Z,14.90
2019-03-21T04:27:24.943Z,14.90
2019-03-21T04:29:51.971Z,14.96
2019-03-21T04:32:18.932Z,14.92
2019-03-21T04:34:45.890Z,14.97
2019-03-21T04:37:13.109Z,14.96
2019-03-21T04:39:40.376Z,14.89
2019-03-21T04:42:07.532Z,14.85
2019-03-21T04:44:34.774Z,14.79
2019-03-21T04:47:01.638Z,14.78
2019-03-21T04:49:28.653Z,14.80
2019-03-21T04:51:55.814Z,14.85
2019-03-21T04:54:22.722Z,14.81
2019-03-21T04:56:49.687Z,14.77
2019-03-21T04:59:16.616Z,14.70
2019-03-21T05:01:43.493Z,14.65
2019-03-21T05:04:10.649Z,14.72
2019-03-21T05:06:37.542Z,14.80
2019-03-21T05:09:04.516Z,14.79
2019-03-21T05:11:31.476Z,14.73
2019-03-21T05:13:58.434Z,14.67
2019-03-21T05:16:25.373Z,14.61
2019-03-21T05:18:52.648Z,14.64
2019-03-21T05:21:19.550Z,14.64
2019-03-21T05:23:46.495Z,14.66
2019-03-21T05:26:13.773Z,14.70
2019-03-21T05:28:40.921Z,14.67
2019-03-21T05:31:08.073Z,14.73
2019-03-21T05:33:35.339Z,14.85
2019-03-21T05:36:02.590Z,14.84
2019-03-21T05:38:29.535Z,14.83
2019-03-21T05:40:56.484Z,14.92
2019-03-21T05:43:23.733Z,14.97
2019-03-21T05:45:50.985Z,15.03
2019-03-21T05:48:18.261Z,15.02
2019-03-21T05:50:45.215Z,14.98
2019-03-21T05:53:12.079Z,14.92
2019-03-21T05:55:38.996Z,14.91
2019-03-21T05:58:06.214Z,14.96
2019-03-21T06:00:33.088Z,15.06
2019-03-21T06:02:59.994Z,15.13
2019-03-21T06:05:26.933Z,15.21
2019-03-21T06:07:54.220Z,15.27
2019-03-21T06:10:21.104Z,15.46
2019-03-21T06:12:48.603Z,15.65
2019-03-21T06:15:15.749Z,15.79
2019-03-21T06:17:42.652Z,15.81
2019-03-21T06:20:09.963Z,15.82
2019-03-21T06:22:36.907Z,15.94
2019-03-21T06:25:04.056Z,16.11
2019-03-21T06:27:31.753Z,16.20
2019-03-21T06:29:58.618Z,16.26
2019-03-21T06:32:25.616Z,16.41
2019-03-21T06:34:52.573Z,16.59
2019-03-21T06:37:19.521Z,16.75
2019-03-21T06:39:46.842Z,16.86
2019-03-21T06:42:14.814Z,16.89
2019-03-21T06:44:42.079Z,17.04
2019-03-21T06:47:09.345Z,17.12
2019-03-21T06:49:36.299Z,17.28
2019-03-21T06:52:03.269Z,17.48
2019-03-21T06:54:30.470Z,17.63
2019-03-21T06:56:57.477Z,17.81
2019-03-21T06:59:24.405Z,17.93
2019-03-21T07:01:51.611Z,18.06
2019-03-21T07:04:18.493Z,18.18
2019-03-21T07:06:45.400Z,18.28
2019-03-21T07:09:12.358Z,18.44
2019-03-21T07:11:39.216Z,18.55
2019-03-21T07:14:06.109Z,18.69
2019-03-21T07:16:32.979Z,18.87
2019-03-21T07:19:00.923Z,19.02
2019-03-21T07:21:28.116Z,19.14
2019-03-21T07:23:56.485Z,19.25
2019-03-21T07:26:23.380Z,19.34
2019-03-21T07:28:50.832Z,19.46
2019-03-21T07:31:17.707Z,19.59
2019-03-21T07:33:44.589Z,19.69
2019-03-21T07:36:11.959Z,19.79
2019-03-21T07:38:39.252Z,19.88
2019-03-21T07:41:06.425Z,19.95
2019-03-21T07:43:33.303Z,20.01
2019-03-21T07:46:00.330Z,20.11
2019-03-21T07:48:27.591Z,20.23
2019-03-21T07:50:54.560Z,20.31
2019-03-21T07:53:22.204Z,20.35
2019-03-21T07:55:49.221Z,20.38
2019-03-21T07:58:16.125Z,20.45
2019-03-21T08:00:43.076Z,20.53
2019-03-21T08:03:10.391Z,20.56
2019-03-21T08:05:40.588Z,20.57
2019-03-21T08:08:05.868Z,20.61
2019-03-21T08:10:33.053Z,20.63
2019-03-21T08:13:01.330Z,20.65
2019-03-21T08:15:28.596Z,20.66
2019-03-21T08:17:55.495Z,20.70
2019-03-21T08:20:22.434Z,20.73
2019-03-21T08:22:49.384Z,20.75
2019-03-21T08:25:16.566Z,20.80
2019-03-21T08:27:43.442Z,20.81
2019-03-21T08:30:10.799Z,20.74
2019-03-21T08:32:37.781Z,20.73
2019-03-21T08:35:05.088Z,20.68
2019-03-21T08:37:31.964Z,20.72
2019-03-21T08:39:58.857Z,20.74
2019-03-21T08:42:25.828Z,20.73
2019-03-21T08:44:52.784Z,20.68
2019-03-21T08:47:19.744Z,20.74
2019-03-21T08:49:46.893Z,20.80
2019-03-21T08:52:14.291Z,20.88
2019-03-21T08:54:41.245Z,20.95
2019-03-21T08:57:08.616Z,20.99
2019-03-21T08:59:35.575Z,21.03
2019-03-21T09:02:02.444Z,21.04
2019-03-21T09:04:29.325Z,21.10
2019-03-21T09:06:56.506Z,21.13
2019-03-21T09:09:23.752Z,21.19
2019-03-21T09:11:51.009Z,21.25
2019-03-21T09:14:18.246Z,21.28
2019-03-21T09:16:45.150Z,21.33
2019-03-21T09:19:12.350Z,21.38
2019-03-21T09:21:39.605Z,21.42
2019-03-21T09:24:06.893Z,21.48
2019-03-21T09:26:34.117Z,21.53
2019-03-21T09:29:00.987Z,21.57
2019-03-21T09:31:28.193Z,21.58
2019-03-21T09:33:55.148Z,21.55
2019-03-21T09:36:22.105Z,21.54
2019-03-21T09:38:49.061Z,21.53
2019-03-21T09:41:15.951Z,21.56
2019-03-21T09:43:42.886Z,21.58
2019-03-21T09:46:09.781Z,21.54
2019-03-21T09:48:37.033Z,21.53
2019-03-21T09:51:03.978Z,21.57
2019-03-21T09:53:30.849Z,21.55
2019-03-21T09:55:57.789Z,21.49
2019-03-21T09:58:24.680Z,21.53
2019-03-21T10:00:51.584Z,21.41
2019-03-21T10:03:18.542Z,21.44
2019-03-21T10:05:45.857Z,21.50
2019-03-21T10:08:13.119Z,21.45
2019-03-21T10:10:40.016Z,21.42
2019-03-21T10:13:07.206Z,21.47
2019-03-21T10:15:34.199Z,21.53
2019-03-21T10:18:01.154Z,21.62
2019-03-21T10:20:28.112Z,21.68
2019-03-21T10:22:55.286Z,21.70
2019-03-21T10:25:22.165Z,21.72
2019-03-21T10:27:49.440Z,21.76
2019-03-21T10:30:16.513Z,21.79
2019-03-21T10:32:43.786Z,21.81
2019-03-21T10:35:10.690Z,21.84
2019-03-21T10:37:37.896Z,21.83
2019-03-21T10:40:04.856Z,21.82
2019-03-21T10:42:31.808Z,21.82
2019-03-21T10:44:59.033Z,21.83
2019-03-21T10:47:26.287Z,21.83
2019-03-21T10:49:53.232Z,21.84
2019-03-21T10:52:20.189Z,21.84
2019-03-21T10:54:47.075Z,21.82
2019-03-21T10:57:14.377Z,21.73
2019-03-21T10:59:41.632Z,21.74
2019-03-21T11:02:08.513Z,21.77
2019-03-21T11:04:35.718Z,21.80
2019-03-21T11:07:02.995Z,21.84
2019-03-21T11:09:29.950Z,21.85
2019-03-21T11:11:56.914Z,21.84
2019-03-21T11:14:23.873Z,21.83
2019-03-21T11:16:50.848Z,21.82
2019-03-21T11:19:18.750Z,21.86
2019-03-21T11:21:46.198Z,21.85
2019-03-21T11:26:44.370Z,21.85
2019-03-21T11:29:11.743Z,21.89
2019-03-21T11:31:38.729Z,21.90
2019-03-21T11:34:05.778Z,21.89
2019-03-21T11:36:38.149Z,21.88
2019-03-21T11:39:01.742Z,21.90
2019-03-21T11:41:29.237Z,21.91
2019-03-21T11:43:56.201Z,21.93
2019-03-21T11:46:23.278Z,21.91
2019-03-21T11:48:50.232Z,21.92
2019-03-21T11:51:17.170Z,21.92
2019-03-21T11:53:44.156Z,21.90
2019-03-21T11:56:13.044Z,21.90
2019-03-21T11:58:40.086Z,21.92
2019-03-21T12:01:07.271Z,21.90
2019-03-21T12:03:34.239Z,21.92
2019-03-21T12:06:01.128Z,21.91
2019-03-21T12:08:28.509Z,21.90
2019-03-21T12:10:55.766Z,21.89
2019-03-21T12:13:22.687Z,21.90
2019-03-21T12:15:49.577Z,21.94
2019-03-21T12:18:16.663Z,21.99
2019-03-21T12:20:43.683Z,22.00
2019-03-21T12:23:10.754Z,22.02
2019-03-21T12:25:38.081Z,22.03
2019-03-21T12:28:04.965Z,22.00
2019-03-21T12:30:31.893Z,22.03
2019-03-21T12:32:58.878Z,22.06
2019-03-21T12:35:25.820Z,22.05
2019-03-21T12:37:53.929Z,22.04
2019-03-21T12:40:20.805Z,22.03
2019-03-21T12:42:47.986Z,22.00
2019-03-21T12:45:15.377Z,22.00
2019-03-21T12:47:42.331Z,22.02
2019-03-21T12:50:09.549Z,22.05
2019-03-21T12:52:41.322Z,22.07
2019-03-21T12:55:05.457Z,22.11
2019-03-21T12:57:32.425Z,22.12
2019-03-21T12:59:59.402Z,22.15
2019-03-21T13:02:32.289Z,22.15
2019-03-21T13:04:55.610Z,22.18
2019-03-21T13:07:22.768Z,22.19
2019-03-21T13:09:49.864Z,22.20
2019-03-21T13:12:17.818Z,22.19
2019-03-21T13:14:45.148Z,22.21
2019-03-21T13:17:12.401Z,22.23
2019-03-21T13:19:39.307Z,22.22
2019-03-21T13:22:06.257Z,22.23
2019-03-21T13:24:33.557Z,22.23
2019-03-21T13:27:00.564Z,22.28
2019-03-21T13:29:28.818Z,22.28
2019-03-21T13:31:55.686Z,22.26
2019-03-21T13:34:22.678Z,22.28
2019-03-21T13:36:49.755Z,22.29
2019-03-21T13:39:16.677Z,22.30
2019-03-21T13:41:44.022Z,22.31
2019-03-21T13:44:11.003Z,22.30
2019-03-21T13:46:37.956Z,22.29
2019-03-21T13:49:05.995Z,22.29
2019-03-21T13:51:33.178Z,22.30
2019-03-21T13:54:00.086Z,22.30
2019-03-21T13:56:37.582Z,22.33
2019-03-21T13:58:55.590Z,22.35
2019-03-21T14:01:22.457Z,22.36
2019-03-21T14:03:49.709Z,22.33
2019-03-21T14:06:16.695Z,22.35
2019-03-21T14:08:44.077Z,22.36
2019-03-21T14:11:11.434Z,22.36
2019-03-21T14:13:38.654Z,22.38
2019-03-21T14:16:05.593Z,22.40
2019-03-21T14:18:32.558Z,22.41
2019-03-21T14:20:59.528Z,22.39
2019-03-21T14:23:26.790Z,22.37
2019-03-21T14:25:53.757Z,22.35
2019-03-21T14:28:21.017Z,22.35
2019-03-21T14:30:48.007Z,22.36
2019-03-21T14:33:15.006Z,22.39
2019-03-21T14:35:41.912Z,22.43
2019-03-21T14:38:08.857Z,22.40
2019-03-21T14:40:36.077Z,22.39
2019-03-21T14:43:03.390Z,22.40
2019-03-21T14:45:30.376Z,22.43
2019-03-21T14:47:58.328Z,22.46
2019-03-21T14:50:25.642Z,22.46
2019-03-21T14:52:52.538Z,22.49
2019-03-21T14:55:19.765Z,22.53
2019-03-21T14:57:46.722Z,22.54
2019-03-21T15:00:13.702Z,22.53
2019-03-21T15:02:40.645Z,22.54
2019-03-21T15:05:08.610Z,22.55
2019-03-21T15:07:35.504Z,22.54
2019-03-21T15:10:02.490Z,22.53
2019-03-21T15:12:29.826Z,22.53
2019-03-21T15:14:58.185Z,22.55
2019-03-21T15:17:25.555Z,22.57
2019-03-21T15:19:52.415Z,22.58
2019-03-21T15:22:19.744Z,22.59
2019-03-21T15:24:47.089Z,22.60
2019-03-21T15:27:14.076Z,22.57
2019-03-21T15:29:44.194Z,22.56
2019-03-21T15:32:11.073Z,22.57
2019-03-21T15:34:37.979Z,22.59
2019-03-21T15:37:05.142Z,22.62
2019-03-21T15:39:32.466Z,22.61
2019-03-21T15:41:59.945Z,22.64
2019-03-21T15:44:27.052Z,22.66
2019-03-21T15:46:55.965Z,22.66
2019-03-21T15:49:24.824Z,22.66
2019-03-21T15:51:53.940Z,22.67
2019-03-21T15:54:21.202Z,22.67
2019-03-21T15:56:48.454Z,22.67
2019-03-21T15:59:15.405Z,22.68
2019-03-21T16:01:42.641Z,22.65
2019-03-21T16:04:09.925Z,22.61
2019-03-21T16:06:36.835Z,22.60
2019-03-21T16:09:04.449Z,22.61
2019-03-21T16:11:31.846Z,22.63
2019-03-21T16:13:58.752Z,22.63
2019-03-21T16:16:25.789Z,22.63
2019-03-21T16:18:52.751Z,22.61
2019-03-21T16:21:21.752Z,22.61
2019-03-21T16:23:49.041Z,22.61
2019-03-21T16:26:16.214Z,22.60
2019-03-21T16:28:43.085Z,22.56
2019-03-21T16:31:11.025Z,22.53
2019-03-21T16:33:37.980Z,22.40
2019-03-21T16:36:05.298Z,22.36
2019-03-21T16:38:32.189Z,22.39
2019-03-21T16:40:59.406Z,22.42
2019-03-21T16:43:26.656Z,22.47
2019-03-21T16:45:53.898Z,22.49
2019-03-21T16:48:21.177Z,22.46
2019-03-21T16:50:48.172Z,22.44
2019-03-21T16:53:15.151Z,22.40
2019-03-21T16:55:42.102Z,22.34
2019-03-21T16:58:09.050Z,22.31
2019-03-21T17:00:35.973Z,22.30
2019-03-21T17:03:03.469Z,22.28
2019-03-21T17:05:31.406Z,22.28
2019-03-21T17:08:10.053Z,22.23
2019-03-21T17:10:26.950Z,22.19
2019-03-21T17:12:53.898Z,22.19
2019-03-21T17:15:20.834Z,22.16
2019-03-21T17:17:49.917Z,22.12
2019-03-21T17:20:16.895Z,22.09
2019-03-21T17:22:43.842Z,22.06
2019-03-21T17:25:10.720Z,22.05
2019-03-21T17:27:37.987Z,22.01
2019-03-21T17:30:05.302Z,21.99
2019-03-21T17:32:32.558Z,21.97
2019-03-21T17:34:59.909Z,21.93
2019-03-21T17:37:26.895Z,21.89
2019-03-21T17:39:53.911Z,21.81
2019-03-21T17:42:21.285Z,21.75
2019-03-21T17:44:48.518Z,21.73
2019-03-21T17:47:17.505Z,21.71
2019-03-21T17:49:44.506Z,21.69
2019-03-21T17:52:11.705Z,21.67
2019-03-21T17:54:41.713Z,21.65
2019-03-21T17:57:07.313Z,21.63
2019-03-21T17:59:34.212Z,21.61
2019-03-21T18:02:01.133Z,21.50
2019-03-21T18:04:28.071Z,21.46
2019-03-21T18:06:54.942Z,21.43
2019-03-21T18:09:21.861Z,21.40
2019-03-21T18:11:48.917Z,21.35
2019-03-21T18:14:15.968Z,21.29
2019-03-21T18:16:42.936Z,21.23
2019-03-21T18:19:10.130Z,21.17
2019-03-21T18:21:37.398Z,21.11
2019-03-21T18:24:04.762Z,21.06
2019-03-21T18:26:32.090Z,20.97
2019-03-21T18:28:59.085Z,20.91
2019-03-21T18:31:26.723Z,20.86
2019-03-21T18:33:53.957Z,20.83
2019-03-21T18:36:20.852Z,20.80
2019-03-21T18:38:57.390Z,20.75
2019-03-21T18:41:16.553Z,20.70
2019-03-21T18:43:43.473Z,20.66
2019-03-21T18:46:10.758Z,20.61
2019-03-21T18:48:37.757Z,20.56
2019-03-21T18:51:04.725Z,20.54
2019-03-21T18:53:31.985Z,20.48
2019-03-21T18:55:59.256Z,20.47
2019-03-21T18:58:26.195Z,20.45
2019-03-21T19:00:53.089Z,20.45
2019-03-21T19:03:20.121Z,20.46
2019-03-21T19:05:47.090Z,20.45
2019-03-21T19:08:14.056Z,20.40
2019-03-21T19:10:41.322Z,20.34
2019-03-21T19:13:08.269Z,20.30
2019-03-21T19:15:35.618Z,20.31
2019-03-21T19:18:02.981Z,20.31
2019-03-21T19:20:30.244Z,20.29
2019-03-21T19:22:57.197Z,20.28
2019-03-21T19:25:24.140Z,20.27
2019-03-21T19:27:51.123Z,20.26
2019-03-21T19:30:18.460Z,20.26
2019-03-21T19:32:45.788Z,20.23
2019-03-21T19:35:13.029Z,20.21
2019-03-21T19:37:40.308Z,20.22
2019-03-21T19:40:11.421Z,20.21
2019-03-21T19:42:38.701Z,20.21
2019-03-21T19:45:05.667Z,20.21
2019-03-21T19:47:32.611Z,20.31
2019-03-21T19:49:59.531Z,20.33
2019-03-21T19:52:26.407Z,20.35
2019-03-21T19:54:54.032Z,20.36
2019-03-21T19:57:22.562Z,20.41
2019-03-21T19:59:49.731Z,20.41
2019-03-21T20:02:16.927Z,20.35
2019-03-21T20:04:43.824Z,20.31
2019-03-21T20:07:10.900Z,20.32
2019-03-21T20:09:38.386Z,20.34
2019-03-21T20:12:05.538Z,20.24
2019-03-21T20:14:32.581Z,20.18
2019-03-21T20:16:59.844Z,20.11
2019-03-21T20:19:26.887Z,20.04
2019-03-21T20:21:54.326Z,20.01
2019-03-21T20:24:21.314Z,19.96
2019-03-21T20:26:48.474Z,19.90
2019-03-21T20:29:16.886Z,19.74
2019-03-21T20:31:43.850Z,19.67
2019-03-21T20:34:12.853Z,19.64
2019-03-21T20:36:39.437Z,19.65
2019-03-21T20:39:06.823Z,19.64
2019-03-21T20:41:34.101Z,19.64
2019-03-21T20:44:01.165Z,19.68
2019-03-21T20:46:28.416Z,19.66
2019-03-21T20:48:56.761Z,19.67
2019-03-21T20:51:23.673Z,19.71
2019-03-21T20:53:51.594Z,19.82
2019-03-21T20:56:18.578Z,19.88
2019-03-21T20:58:45.864Z,19.90
2019-03-21T21:01:13.125Z,19.96
2019-03-21T21:03:41.016Z,20.05
2019-03-21T21:06:08.350Z,20.11
2019-03-21T21:08:35.286Z,20.10
2019-03-21T21:11:02.259Z,20.06
2019-03-21T21:13:29.509Z,19.93
2019-03-21T21:15:56.952Z,19.87
2019-03-21T21:18:24.186Z,19.80
2019-03-21T21:20:51.061Z,19.68
2019-03-21T21:23:18.297Z,19.56
2019-03-21T21:25:45.261Z,19.44
2019-03-21T21:28:12.237Z,19.33
2019-03-21T21:30:39.122Z,19.17
2019-03-21T21:33:06.366Z,19.10
2019-03-21T21:35:33.282Z,19.08
2019-03-21T21:38:00.224Z,19.08
2019-03-21T21:40:27.080Z,19.10
2019-03-21T21:42:53.999Z,19.10
2019-03-21T21:45:20.956Z,19.04
2019-03-21T21:47:47.922Z,18.95
2019-03-21T21:50:14.795Z,18.91
2019-03-21T21:52:42.457Z,18.90
2019-03-21T21:55:10.626Z,18.87
2019-03-21T21:57:37.572Z,18.80
2019-03-21T22:00:04.444Z,18.76
2019-03-21T22:02:31.779Z,18.79
2019-03-21T22:05:00.422Z,18.78
2019-03-21T22:07:28.523Z,18.71
2019-03-21T22:09:55.499Z,18.70
2019-03-21T22:12:22.722Z,18.64
2019-03-21T22:14:50.002Z,18.65
2019-03-21T22:17:16.913Z,18.73
2019-03-21T22:19:44.185Z,18.78
2019-03-21T22:22:11.157Z,18.81
2019-03-21T22:24:38.101Z,18.80
2019-03-21T22:27:05.320Z,18.77
2019-03-21T22:29:32.262Z,18.71
2019-03-21T22:31:59.533Z,18.67
2019-03-21T22:34:26.436Z,18.68
2019-03-21T22:36:53.375Z,18.66
2019-03-21T22:39:20.563Z,18.60
2019-03-21T22:41:47.447Z,18.55
2019-03-21T22:44:14.420Z,18.50
2019-03-21T22:46:41.720Z,18.49
2019-03-21T22:49:08.723Z,18.50
2019-03-21T22:51:35.590Z,18.51
2019-03-21T22:54:03.798Z,18.49
2019-03-21T22:56:40.825Z,18.48
2019-03-21T22:58:59.676Z,18.47
2019-03-21T23:01:26.615Z,18.41
2019-03-21T23:03:53.803Z,18.29
2019-03-21T23:06:20.697Z,18.23
2019-03-21T23:08:47.588Z,18.18
2019-03-21T23:11:14.479Z,18.14
2019-03-21T23:13:43.076Z,18.07
2019-03-21T23:16:11.397Z,18.07
2019-03-21T23:18:38.566Z,18.08
2019-03-21T23:21:05.453Z,18.08
2019-03-21T23:23:32.658Z,18.02
2019-03-21T23:25:59.928Z,17.96
2019-03-21T23:28:26.893Z,17.89
2019-03-21T23:30:54.201Z,17.89
2019-03-21T23:33:22.478Z,17.95
2019-03-21T23:35:50.435Z,17.99
2019-03-21T23:38:17.325Z,17.94
2019-03-21T23:40:44.272Z,17.82
2019-03-21T23:43:11.140Z,17.68
2019-03-21T23:45:38.039Z,17.57
2019-03-21T23:48:05.974Z,17.45
2019-03-21T23:50:32.861Z,17.40
2019-03-21T23:52:59.820Z,17.36
2019-03-21T23:55:26.757Z,17.32
2019-03-21T23:57:53.645Z,17.25
